Time;durP1;ratioP1;P1;durP2;ratioP2;P2;SDS_P1;SDS_P2;PMS_P1;PMS_P2;Temp;Humidity;BMP_temperature;BMP_pressure;BME280_temperature;BME280_humidity;BME280_pressure;Samples;Min_cycle;Max_cycle;Signal;HPM_P1;HPM_P2
2021/12/11 00:01:00;;;;;;;144.67;61.47;;;2.20;99.90;;;;;;5093906;28;20169;-51
2021/12/11 00:03:40;;;;;;;149.40;59.77;;;2.20;99.90;;;;;;5076317;28;20637;-49
2021/12/11 00:06:28;;;;;;;152.20;62.53;;;2.20;99.90;;;;;;5073728;28;20280;-49
2021/12/11 00:08:57;;;;;;;137.53;58.60;;;2.20;99.90;;;;;;5074027;28;20165;-53
2021/12/11 00:11:33;;;;;;;157.23;64.57;;;2.20;99.90;;;;;;5074201;28;20181;-50
2021/12/11 00:14:02;;;;;;;137.20;59.23;;;2.20;99.90;;;;;;5073520;28;20252;-50
2021/12/11 00:16:33;;;;;;;148.33;63.87;;;2.20;99.90;;;;;;5073393;28;20190;-50
2021/12/11 00:19:21;;;;;;;165.93;68.13;;;2.20;99.90;;;;;;5074051;28;20264;-48
2021/12/11 00:21:48;;;;;;;147.77;62.37;;;2.10;99.90;;;;;;5073218;28;20208;-49
2021/12/11 00:24:26;;;;;;;148.57;62.00;;;2.10;99.90;;;;;;5073906;28;20173;-53
2021/12/11 00:27:00;;;;;;;148.90;65.27;;;2.10;99.90;;;;;;5073500;28;20287;-48
2021/12/11 00:29:27;;;;;;;153.23;61.73;;;2.10;99.90;;;;;;5073860;28;20474;-48
2021/12/11 00:32:23;;;;;;;144.13;61.27;;;2.10;99.90;;;;;;5073045;28;20220;-50
2021/12/11 00:34:52;;;;;;;150.23;62.70;;;2.10;99.90;;;;;;5080935;28;20273;-53
2021/12/11 00:37:23;;;;;;;148.70;61.00;;;2.10;99.90;;;;;;5075606;28;20183;-53
2021/12/11 00:39:57;;;;;;;137.17;58.30;;;2.10;99.90;;;;;;5093504;28;20153;-49
2021/12/11 00:42:31;;;;;;;135.03;57.43;;;2.20;99.90;;;;;;5093824;28;20607;-49
2021/12/11 00:44:59;;;;;;;131.77;57.70;;;2.20;99.90;;;;;;5092946;28;20580;-50
2021/12/11 00:47:28;;;;;;;124.97;52.93;;;2.20;99.90;;;;;;5093652;28;20234;-49
2021/12/11 00:49:57;;;;;;;132.57;52.80;;;2.30;99.90;;;;;;5093208;28;20268;-52
2021/12/11 00:52:44;;;;;;;132.83;56.17;;;2.30;99.90;;;;;;5093407;28;20173;-48
2021/12/11 00:55:32;;;;;;;132.43;53.67;;;2.30;99.90;;;;;;5093561;28;20173;-53
2021/12/11 00:58:23;;;;;;;129.37;55.07;;;2.30;99.90;;;;;;5093214;28;20157;-51
2021/12/11 01:00:57;;;;;;;133.20;57.63;;;2.20;99.90;;;;;;5080688;28;20221;-52
2021/12/11 01:03:43;;;;;;;136.90;56.77;;;2.20;99.90;;;;;;5093167;28;20199;-51
2021/12/11 01:06:24;;;;;;;141.80;56.70;;;2.20;99.90;;;;;;5072966;28;20170;-51
2021/12/11 01:09:01;;;;;;;139.03;56.77;;;2.20;99.90;;;;;;5072768;28;20498;-47
2021/12/11 01:11:51;;;;;;;138.93;56.50;;;2.20;99.90;;;;;;5072890;28;20519;-49
2021/12/11 01:14:25;;;;;;;137.00;57.33;;;2.20;99.90;;;;;;5072310;28;20225;-51
2021/12/11 01:17:01;;;;;;;141.27;60.80;;;2.20;99.90;;;;;;5072130;28;20639;-53
2021/12/11 01:19:29;;;;;;;131.93;57.10;;;2.10;99.90;;;;;;5072808;28;20153;-48
2021/12/11 01:21:58;;;;;;;130.93;54.93;;;2.10;99.90;;;;;;5072192;28;20223;-49
2021/12/11 01:26:57;;;;;;;137.43;56.53;;;2.10;99.90;;;;;;5072541;28;20208;-49
2021/12/11 01:29:27;;;;;;;141.77;57.47;;;2.10;99.90;;;;;;5072535;28;20180;-51
2021/12/11 01:31:56;;;;;;;145.33;60.10;;;2.10;99.90;;;;;;5072223;28;20215;-51
2021/12/11 01:34:22;;;;;;;151.33;61.17;;;2.00;99.90;;;;;;5077723;28;20586;-47
2021/12/11 01:36:49;;;;;;;111.53;48.90;;;2.00;99.90;;;;;;5092695;28;20668;-49
2021/12/11 01:39:21;;;;;;;125.77;52.37;;;2.00;99.90;;;;;;5092717;28;20180;-46
2021/12/11 01:41:52;;;;;;;115.10;47.67;;;2.10;99.90;;;;;;5092442;28;20200;-55
2021/12/11 01:44:31;;;;;;;123.57;50.93;;;2.10;99.90;;;;;;5092206;28;20227;-48
2021/12/11 01:47:09;;;;;;;128.53;52.03;;;2.20;99.90;;;;;;5092537;28;20499;-47
2021/12/11 01:49:39;;;;;;;130.03;54.13;;;2.20;99.90;;;;;;5092231;28;20434;-50
2021/12/11 01:52:25;;;;;;;136.43;54.90;;;2.20;99.90;;;;;;5091880;28;20268;-50
2021/12/11 01:54:51;;;;;;;129.60;53.73;;;2.10;99.90;;;;;;5092103;28;20621;-48
2021/12/11 01:57:25;;;;;;;116.07;49.80;;;2.10;99.90;;;;;;5092458;28;20209;-50
2021/12/11 01:59:56;;;;;;;121.23;53.10;;;2.20;99.90;;;;;;5091530;28;20200;-48
2021/12/11 02:02:31;;;;;;;112.40;44.00;;;2.30;99.90;;;;;;5092246;28;20254;-47
2021/12/11 02:04:57;;;;;;;92.13;40.53;;;2.30;99.90;;;;;;5092148;28;20179;-48
2021/12/11 02:07:32;;;;;;;91.93;37.20;;;2.30;99.90;;;;;;5091972;28;20183;-50
2021/12/11 02:10:00;;;;;;;91.00;38.53;;;2.40;99.90;;;;;;5091760;28;20163;-50
2021/12/11 02:12:36;;;;;;;91.10;40.43;;;2.40;99.90;;;;;;5091921;28;20224;-48
2021/12/11 02:15:04;;;;;;;101.30;41.80;;;2.50;99.90;;;;;;5092107;28;20216;-50
2021/12/11 02:17:45;;;;;;;106.53;44.73;;;2.50;99.90;;;;;;5091997;28;20193;-48
2021/12/11 02:20:14;;;;;;;104.30;42.50;;;2.50;99.90;;;;;;5092131;28;20160;-51
2021/12/11 02:22:49;;;;;;;99.63;42.17;;;2.50;99.90;;;;;;5091987;28;20208;-50
2021/12/11 02:25:19;;;;;;;99.10;40.67;;;2.50;99.90;;;;;;5092216;28;20160;-51
2021/12/11 02:27:52;;;;;;;101.20;40.87;;;2.50;99.90;;;;;;5091826;28;20203;-65
2021/12/11 02:30:33;;;;;;;115.40;47.97;;;2.40;99.90;;;;;;5091971;28;20255;-51
2021/12/11 02:33:06;;;;;;;104.00;44.13;;;2.30;99.90;;;;;;5091642;28;20175;-55
2021/12/11 02:35:56;;;;;;;104.07;43.93;;;2.30;99.90;;;;;;5091884;28;20180;-50
2021/12/11 02:38:33;;;;;;;106.00;41.97;;;2.20;99.90;;;;;;5091845;28;20624;-48
2021/12/11 02:41:15;;;;;;;96.20;39.77;;;2.20;99.90;;;;;;5091747;28;20176;-49
2021/12/11 02:43:43;;;;;;;91.23;40.73;;;2.20;99.90;;;;;;5091850;28;20258;-49
2021/12/11 02:46:18;;;;;;;98.00;42.37;;;2.20;99.90;;;;;;5091297;28;20530;-51
2021/12/11 02:48:49;;;;;;;90.60;38.53;;;2.20;99.90;;;;;;5092004;28;20158;-51
2021/12/11 02:51:26;;;;;;;84.30;34.33;;;2.30;99.90;;;;;;5092035;28;20184;-52
2021/12/11 02:54:07;;;;;;;74.10;32.67;;;2.30;99.90;;;;;;5091417;28;20168;-51
2021/12/11 02:56:38;;;;;;;86.27;36.87;;;2.40;99.90;;;;;;5092604;28;20161;-47
2021/12/11 02:59:12;;;;;;;80.43;35.33;;;2.40;99.90;;;;;;5077032;28;20165;-49
2021/12/11 03:01:47;;;;;;;93.20;38.27;;;2.40;99.90;;;;;;5095678;28;20169;-52
2021/12/11 03:04:34;;;;;;;91.80;39.50;;;2.40;99.90;;;;;;5095805;28;20626;-48
2021/12/11 03:07:03;;;;;;;94.13;40.00;;;2.40;99.90;;;;;;5095239;28;20507;-49
2021/12/11 03:09:33;;;;;;;91.87;38.77;;;2.30;99.90;;;;;;5095328;28;20558;-51
2021/12/11 03:12:01;;;;;;;98.20;37.40;;;2.30;99.90;;;;;;5094950;28;20180;-48
2021/12/11 03:14:28;;;;;;;89.20;37.23;;;2.30;99.90;;;;;;5094664;28;20311;-48
2021/12/11 03:16:55;;;;;;;82.80;34.13;;;2.20;99.90;;;;;;5095147;28;20245;-49
2021/12/11 03:19:24;;;;;;;77.17;32.23;;;2.30;99.90;;;;;;5095511;28;20184;-52
2021/12/11 03:21:52;;;;;;;71.23;29.90;;;2.20;99.90;;;;;;5077117;28;20169;-52
2021/12/11 03:24:18;;;;;;;73.23;31.77;;;2.20;99.90;;;;;;5094668;28;20282;-50
2021/12/11 03:26:48;;;;;;;64.80;29.53;;;2.20;99.90;;;;;;5095127;28;20173;-50
2021/12/11 03:29:15;;;;;;;66.87;29.43;;;2.30;99.90;;;;;;5094832;28;20157;-51
2021/12/11 03:31:42;;;;;;;68.30;29.43;;;2.40;99.90;;;;;;5095038;28;20260;-52
2021/12/11 03:34:13;;;;;;;69.73;29.20;;;2.40;99.90;;;;;;5094426;28;20173;-53
2021/12/11 03:36:39;;;;;;;58.07;27.90;;;2.40;99.90;;;;;;5094776;28;20513;-51
2021/12/11 03:39:22;;;;;;;63.57;28.23;;;2.40;99.90;;;;;;5094557;28;20172;-48
2021/12/11 03:41:51;;;;;;;60.43;28.77;;;2.40;99.90;;;;;;5094749;28;20212;-54
2021/12/11 03:44:17;;;;;;;66.47;29.10;;;2.50;99.90;;;;;;5094469;28;20174;-51
2021/12/11 03:46:46;;;;;;;67.17;29.33;;;2.40;99.90;;;;;;5094714;28;20180;-50
2021/12/11 03:49:17;;;;;;;69.63;29.53;;;2.40;99.90;;;;;;5094832;28;20168;-52
2021/12/11 03:51:47;;;;;;;64.30;28.20;;;2.40;99.90;;;;;;5076433;28;20173;-49
2021/12/11 03:54:17;;;;;;;63.90;27.33;;;2.40;99.90;;;;;;5094604;28;20390;-51
2021/12/11 03:56:43;;;;;;;72.47;30.30;;;2.40;99.90;;;;;;5094499;28;20165;-48
2021/12/11 03:59:11;;;;;;;72.97;29.33;;;2.40;99.90;;;;;;5094174;28;20235;-46
2021/12/11 04:01:43;;;;;;;65.33;28.43;;;2.40;99.90;;;;;;5094432;28;20256;-52
2021/12/11 04:04:29;;;;;;;67.47;29.97;;;2.40;99.90;;;;;;5094003;28;20268;-48
2021/12/11 04:06:57;;;;;;;68.67;30.63;;;2.40;99.90;;;;;;5094201;28;20164;-52
2021/12/11 04:09:25;;;;;;;76.83;31.50;;;2.30;99.90;;;;;;5094007;28;20177;-51
2021/12/11 04:11:54;;;;;;;75.10;31.80;;;2.30;99.90;;;;;;5075504;28;20177;-50
2021/12/11 04:14:24;;;;;;;79.57;30.97;;;2.20;99.90;;;;;;5093489;28;20277;-49
2021/12/11 04:16:51;;;;;;;71.80;29.73;;;2.20;99.90;;;;;;5093989;28;20241;-53
2021/12/11 04:19:18;;;;;;;80.97;31.90;;;2.20;99.90;;;;;;5094183;28;20216;-49
2021/12/11 04:21:46;;;;;;;71.20;33.50;;;2.20;99.90;;;;;;5093990;28;20264;-50
2021/12/11 04:24:14;;;;;;;78.17;33.53;;;2.10;99.90;;;;;;5094364;28;20172;-48
2021/12/11 04:26:40;;;;;;;79.50;33.80;;;2.10;99.90;;;;;;5093813;28;20187;-47
2021/12/11 04:29:08;;;;;;;80.00;32.57;;;2.00;99.90;;;;;;5093380;28;20173;-48
2021/12/11 04:31:37;;;;;;;79.70;33.03;;;1.90;99.90;;;;;;5075680;28;20177;-50
2021/12/11 04:34:07;;;;;;;74.97;32.27;;;1.90;99.90;;;;;;5093246;28;20644;-50
2021/12/11 04:36:40;;;;;;;77.67;35.67;;;1.90;99.90;;;;;;5093582;28;20169;-47
2021/12/11 04:39:08;;;;;;;78.57;33.23;;;1.80;99.90;;;;;;5093802;28;20600;-51
2021/12/11 04:41:42;;;;;;;79.70;33.77;;;1.80;99.90;;;;;;5093398;28;20181;-51
2021/12/11 04:44:14;;;;;;;73.90;32.67;;;1.70;99.90;;;;;;5092877;28;20170;-52
2021/12/11 04:46:40;;;;;;;84.70;36.33;;;1.70;99.90;;;;;;5093264;28;20169;-50
2021/12/11 04:49:14;;;;;;;85.27;37.87;;;1.70;99.90;;;;;;5093205;28;20573;-48
2021/12/11 05:10:34;;;;;;;93.40;39.03;;;1.50;99.90;;;;;;5029870;28;20185;-55
2021/12/11 05:13:01;;;;;;;88.67;37.23;;;1.40;99.90;;;;;;5029608;28;20171;-62
2021/12/11 05:15:34;;;;;;;83.80;37.40;;;1.40;99.90;;;;;;5065558;28;20216;-48
2021/12/11 05:18:02;;;;;;;90.13;38.60;;;1.40;99.90;;;;;;5092491;28;20540;-49
2021/12/11 05:20:32;;;;;;;89.37;37.63;;;1.40;99.90;;;;;;5092238;28;20176;-50
2021/12/11 05:22:58;;;;;;;83.43;35.93;;;1.50;99.90;;;;;;5092313;28;20212;-49
2021/12/11 05:25:24;;;;;;;87.90;35.30;;;1.40;99.90;;;;;;5092801;28;20175;-49
2021/12/11 05:27:50;;;;;;;82.73;35.27;;;1.40;99.90;;;;;;5074085;28;20180;-50
2021/12/11 05:30:24;;;;;;;79.60;33.33;;;1.30;99.90;;;;;;5092313;28;20181;-49
2021/12/11 05:32:51;;;;;;;86.97;34.93;;;1.20;99.90;;;;;;5092452;28;20177;-53
2021/12/11 05:35:19;;;;;;;82.17;34.67;;;1.10;99.90;;;;;;5092294;28;20234;-52
2021/12/11 05:37:44;;;;;;;75.93;33.87;;;1.00;99.90;;;;;;5092559;28;20678;-49
2021/12/11 05:40:14;;;;;;;72.43;32.53;;;1.00;99.90;;;;;;5092332;28;20176;-51
2021/12/11 05:42:40;;;;;;;86.87;37.03;;;0.90;99.90;;;;;;5092219;28;20219;-50
2021/12/11 05:45:06;;;;;;;93.37;38.90;;;1.10;99.90;;;;;;5091742;28;20177;-53
2021/12/11 05:47:33;;;;;;;96.40;42.67;;;1.10;99.90;;;;;;5091914;28;20252;-53
2021/12/11 05:49:59;;;;;;;69.67;31.40;;;1.10;99.90;;;;;;5091929;28;20175;-50
2021/12/11 05:52:25;;;;;;;81.60;34.37;;;1.20;99.90;;;;;;5091830;28;20500;-51
2021/12/11 05:54:52;;;;;;;77.47;32.57;;;1.30;99.90;;;;;;5092197;28;20806;-48
2021/12/11 05:57:20;;;;;;;80.43;34.50;;;1.20;99.90;;;;;;5091946;28;20181;-50
2021/12/11 05:59:48;;;;;;;83.07;34.93;;;1.20;99.90;;;;;;5091561;28;20176;-52
2021/12/11 06:02:23;;;;;;;72.63;34.07;;;1.20;99.90;;;;;;5092230;28;20196;-49
2021/12/11 06:04:51;;;;;;;70.87;31.27;;;1.10;99.90;;;;;;5091543;28;20178;-51
2021/12/11 06:07:18;;;;;;;61.27;29.07;;;1.10;99.90;;;;;;5091653;28;20176;-50
2021/12/11 06:09:48;;;;;;;65.53;26.90;;;1.10;99.90;;;;;;5092033;28;20173;-49
2021/12/11 06:12:16;;;;;;;59.83;26.63;;;1.20;99.90;;;;;;5091159;28;20513;-47
2021/12/11 06:14:43;;;;;;;77.00;31.67;;;1.20;99.90;;;;;;5091549;28;20225;-54
2021/12/11 06:17:12;;;;;;;60.90;28.17;;;1.20;99.90;;;;;;5091689;28;20173;-50
2021/12/11 06:19:41;;;;;;;77.80;33.10;;;1.20;99.90;;;;;;5091481;28;20539;-52
2021/12/11 06:22:07;;;;;;;67.27;28.63;;;1.20;99.90;;;;;;5091474;28;20307;-49
2021/12/11 06:24:33;;;;;;;69.90;31.50;;;1.30;99.90;;;;;;5091535;28;20224;-53
2021/12/11 06:27:00;;;;;;;72.53;32.43;;;1.40;99.90;;;;;;5073008;28;20196;-49
2021/12/11 06:29:26;;;;;;;67.43;30.63;;;1.50;99.90;;;;;;5091087;28;20172;-50
2021/12/11 06:31:53;;;;;;;72.13;30.03;;;1.50;99.90;;;;;;5094255;28;20203;-52
2021/12/11 06:34:19;;;;;;;65.90;30.63;;;1.50;99.90;;;;;;5095443;28;20234;-55
2021/12/11 06:36:46;;;;;;;70.30;29.30;;;1.50;99.90;;;;;;5095614;28;20609;-49
2021/12/11 06:39:17;;;;;;;71.23;30.30;;;1.50;99.90;;;;;;5095503;28;20209;-50
2021/12/11 06:41:45;;;;;;;61.73;29.53;;;1.60;99.90;;;;;;5095364;28;20243;-47
2021/12/11 06:44:11;;;;;;;62.53;27.63;;;1.60;99.90;;;;;;5094562;28;20198;-50
2021/12/11 06:46:39;;;;;;;56.03;27.40;;;1.60;99.90;;;;;;5095592;28;20183;-51
2021/12/11 06:49:06;;;;;;;64.63;27.20;;;1.60;99.90;;;;;;5095181;28;20183;-53
2021/12/11 06:51:32;;;;;;;61.67;27.53;;;1.60;99.90;;;;;;5095205;28;20645;-52
2021/12/11 06:54:03;;;;;;;59.43;28.13;;;1.70;99.90;;;;;;5095022;28;20179;-48
2021/12/11 06:56:29;;;;;;;76.20;30.43;;;1.70;99.90;;;;;;5095692;28;20161;-48
2021/12/11 06:58:55;;;;;;;78.40;35.00;;;1.80;99.90;;;;;;5094666;28;20303;-48
2021/12/11 07:01:23;;;;;;;83.90;40.63;;;2.00;99.90;;;;;;5092726;28;20187;-47
2021/12/11 07:03:50;;;;;;;83.80;37.73;;;2.40;99.90;;;;;;5094039;28;20231;-51
2021/12/11 07:06:16;;;;;;;79.40;40.13;;;2.40;99.90;;;;;;5094786;28;20169;-50
2021/12/11 07:08:43;;;;;;;67.10;29.50;;;2.40;99.90;;;;;;5076016;28;20521;-50
2021/12/11 07:11:11;;;;;;;72.00;31.90;;;2.30;99.90;;;;;;5091291;28;20233;-47
2021/12/11 07:13:39;;;;;;;64.10;30.70;;;2.40;99.90;;;;;;5060977;28;20239;-50
2021/12/11 07:16:06;;;;;;;52.47;27.80;;;2.40;99.90;;;;;;5094058;28;20188;-51
2021/12/11 07:18:34;;;;;;;56.83;28.10;;;2.30;99.90;;;;;;5094449;28;20173;-53
2021/12/11 07:21:01;;;;;;;65.07;28.30;;;2.50;99.90;;;;;;5094812;28;20204;-57
2021/12/11 07:23:27;;;;;;;64.33;29.67;;;2.60;99.90;;;;;;5094187;28;20552;-56
2021/12/11 07:26:04;;;;;;;61.20;30.23;;;2.60;99.90;;;;;;5094436;28;20628;-58
2021/12/11 07:28:30;;;;;;;70.80;31.87;;;2.70;99.90;;;;;;5094041;28;20192;-60
2021/12/11 07:30:58;;;;;;;60.27;29.17;;;2.70;99.90;;;;;;5090351;28;20216;-57
2021/12/11 07:33:25;;;;;;;62.40;27.87;;;2.80;99.90;;;;;;5092505;28;20230;-59
2021/12/11 07:35:52;;;;;;;63.70;31.43;;;2.90;99.90;;;;;;5092113;28;20622;-59
2021/12/11 07:38:20;;;;;;;56.93;25.37;;;3.10;99.90;;;;;;5092226;28;20180;-59
2021/12/11 07:40:57;;;;;;;55.43;24.90;;;3.20;99.90;;;;;;5092572;28;20185;-62
2021/12/11 07:43:25;;;;;;;44.10;20.83;;;3.30;99.90;;;;;;5072085;28;20224;-58
2021/12/11 07:45:51;;;;;;;46.87;20.57;;;3.40;99.90;;;;;;5091479;28;20201;-56
2021/12/11 07:48:17;;;;;;;48.13;22.57;;;3.40;99.90;;;;;;5088868;28;20177;-59
2021/12/11 07:50:44;;;;;;;53.73;25.03;;;3.40;99.90;;;;;;5091240;28;20188;-57
2021/12/11 07:53:10;;;;;;;50.13;21.33;;;3.50;99.90;;;;;;5091290;28;20500;-60
2021/12/11 07:55:37;;;;;;;49.30;21.43;;;3.60;99.90;;;;;;5081926;28;20190;-57
2021/12/11 07:58:04;;;;;;;51.60;24.17;;;3.60;99.90;;;;;;5091143;28;20177;-59
2021/12/11 08:00:31;;;;;;;57.73;28.63;;;3.60;99.90;;;;;;5091847;28;20182;-55
2021/12/11 08:02:56;;;;;;;63.87;27.53;;;3.60;99.90;;;;;;5092213;28;20654;-60
2021/12/11 08:05:25;;;;;;;58.17;27.27;;;3.60;99.90;;;;;;5091138;28;20239;-58
2021/12/11 08:07:51;;;;;;;72.60;31.93;;;3.60;99.90;;;;;;5090644;28;20176;-54
2021/12/11 08:10:21;;;;;;;77.67;37.00;;;3.70;99.90;;;;;;5090521;28;20174;-56
2021/12/11 08:12:47;;;;;;;79.13;34.77;;;3.60;99.90;;;;;;5079566;28;20774;-60
2021/12/11 08:15:14;;;;;;;84.37;41.17;;;3.90;99.90;;;;;;5091480;28;20227;-56
2021/12/11 08:17:40;;;;;;;98.43;45.60;;;4.00;99.90;;;;;;5071689;28;20178;-59
2021/12/11 08:20:09;;;;;;;97.13;47.40;;;3.90;99.90;;;;;;5071502;28;20507;-58
2021/12/11 08:22:35;;;;;;;88.30;43.07;;;3.90;99.90;;;;;;5052892;28;20313;-57
2021/12/11 08:25:03;;;;;;;88.83;40.17;;;3.90;99.90;;;;;;5071005;28;20226;-61
2021/12/11 08:27:29;;;;;;;73.93;36.00;;;3.90;99.90;;;;;;5083042;28;20173;-61
2021/12/11 08:29:55;;;;;;;88.43;40.03;;;3.90;99.90;;;;;;5091554;28;20260;-61
2021/12/11 08:32:21;;;;;;;88.20;42.73;;;4.30;99.90;;;;;;5090858;28;20359;-57
2021/12/11 08:34:49;;;;;;;89.87;43.13;;;5.00;99.90;;;;;;5089977;28;20179;-56
2021/12/11 08:37:17;;;;;;;82.73;41.83;;;5.20;99.90;;;;;;5091186;28;20631;-55
2021/12/11 08:39:43;;;;;;;80.13;38.73;;;4.90;99.90;;;;;;5091620;28;20195;-61
2021/12/11 08:42:13;;;;;;;84.57;38.20;;;4.60;99.90;;;;;;5090565;28;20298;-61
2021/12/11 08:44:48;;;;;;;77.87;36.37;;;4.60;99.90;;;;;;5090620;28;20633;-59
2021/12/11 08:47:14;;;;;;;67.63;33.07;;;4.40;99.90;;;;;;5091269;28;20155;-55
2021/12/11 08:49:42;;;;;;;68.97;33.63;;;4.40;99.90;;;;;;5092894;28;20519;-60
2021/12/11 08:52:21;;;;;;;66.23;34.60;;;4.40;99.90;;;;;;5092404;28;20244;-59
2021/12/11 08:54:47;;;;;;;66.70;32.17;;;4.40;99.90;;;;;;5073401;28;20177;-60
2021/12/11 08:57:17;;;;;;;86.77;41.27;;;4.40;99.90;;;;;;5092764;28;20177;-60
2021/12/11 08:59:49;;;;;;;100.30;54.50;;;4.40;99.90;;;;;;5074479;28;20208;-61
2021/12/11 09:02:20;;;;;;;105.97;55.37;;;4.30;99.90;;;;;;5092635;28;20233;-62
2021/12/11 09:04:48;;;;;;;100.13;52.77;;;4.30;99.90;;;;;;5092284;28;20259;-58
2021/12/11 09:07:30;;;;;;;110.83;54.77;;;4.30;99.90;;;;;;5092067;28;20185;-60
2021/12/11 09:10:17;;;;;;;78.90;38.73;;;4.40;99.90;;;;;;5091030;28;20252;-60
2021/12/11 09:13:06;;;;;;;60.53;29.40;;;4.50;99.90;;;;;;5088259;28;20178;-62
2021/12/11 09:15:45;;;;;;;59.03;27.53;;;4.60;99.90;;;;;;5089485;28;20155;-60
2021/12/11 09:18:31;;;;;;;53.10;24.90;;;4.80;99.90;;;;;;5070787;28;20195;-61
2021/12/11 09:21:07;;;;;;;41.97;19.73;;;4.80;99.90;;;;;;5089022;28;20686;-61
2021/12/11 09:23:45;;;;;;;38.73;20.37;;;4.90;99.90;;;;;;5091079;28;20203;-61
2021/12/11 09:26:14;;;;;;;41.80;19.97;;;5.00;99.90;;;;;;5091278;28;20160;-60
2021/12/11 09:29:14;;;;;;;39.57;20.17;;;5.00;99.90;;;;;;5091511;28;20297;-62
2021/12/11 09:31:52;;;;;;;30.60;16.40;;;5.00;99.90;;;;;;5020499;28;20662;-60
2021/12/11 09:34:22;;;;;;;34.10;17.67;;;5.00;99.90;;;;;;5073099;28;20302;-60
2021/12/11 09:36:57;;;;;;;36.57;18.60;;;5.10;99.90;;;;;;5091855;28;20237;-61
2021/12/11 09:39:25;;;;;;;47.63;24.70;;;5.10;99.90;;;;;;5092041;28;20152;-59
2021/12/11 09:41:51;;;;;;;80.53;40.70;;;5.20;99.90;;;;;;5091538;28;20633;-60
2021/12/11 09:44:40;;;;;;;72.13;36.13;;;5.30;99.90;;;;;;5092054;28;20261;-62
2021/12/11 09:47:14;;;;;;;68.73;35.93;;;5.30;99.90;;;;;;5090177;28;20192;-59
2021/12/11 09:49:44;;;;;;;65.97;34.77;;;5.40;99.90;;;;;;5092149;28;20521;-61
2021/12/11 09:52:17;;;;;;;57.00;29.80;;;5.40;99.90;;;;;;5090994;28;20165;-61
2021/12/11 09:54:49;;;;;;;57.57;29.60;;;5.40;99.90;;;;;;5091514;28;20172;-60
2021/12/11 09:57:18;;;;;;;48.57;26.97;;;5.40;99.90;;;;;;5091459;28;20203;-61
2021/12/11 09:59:46;;;;;;;55.90;27.80;;;5.30;99.90;;;;;;5091714;28;20597;-60
2021/12/11 10:02:18;;;;;;;74.10;35.10;;;5.40;99.90;;;;;;5091759;28;20192;-59
2021/12/11 10:04:57;;;;;;;80.77;37.40;;;5.40;99.90;;;;;;5091227;28;20172;-60
2021/12/11 10:07:37;;;;;;;45.90;23.90;;;5.60;99.90;;;;;;5091357;28;20237;-61
2021/12/11 10:10:25;;;;;;;55.57;25.93;;;5.60;99.90;;;;;;5091248;28;20177;-61
2021/12/11 10:12:55;;;;;;;29.60;16.27;;;5.70;99.90;;;;;;5090734;28;20179;-63
2021/12/11 10:15:26;;;;;;;33.03;17.23;;;5.80;99.90;;;;;;5092308;28;20215;-60
2021/12/11 10:18:03;;;;;;;26.77;14.20;;;5.80;99.90;;;;;;5090844;28;20178;-61
2021/12/11 10:20:40;;;;;;;23.80;12.90;;;5.80;99.90;;;;;;5091381;28;20546;-59
2021/12/11 10:23:11;;;;;;;34.27;16.83;;;5.80;99.90;;;;;;5091280;28;20203;-61
2021/12/11 10:25:40;;;;;;;28.77;15.03;;;5.80;99.90;;;;;;5091003;28;20165;-60
2021/12/11 10:28:09;;;;;;;25.93;13.37;;;5.80;99.90;;;;;;5090671;28;20196;-60
2021/12/11 10:30:41;;;;;;;27.37;13.30;;;5.80;99.90;;;;;;5091418;28;20289;-59
2021/12/11 10:33:08;;;;;;;21.73;11.27;;;5.80;99.90;;;;;;5091078;28;20716;-62
2021/12/11 10:35:37;;;;;;;19.63;11.67;;;5.90;99.90;;;;;;5091070;28;20629;-59
2021/12/11 10:38:05;;;;;;;24.13;11.97;;;5.90;99.90;;;;;;5073034;28;20172;-59
2021/12/11 10:40:40;;;;;;;21.13;12.20;;;6.00;99.90;;;;;;5073073;28;20582;-61
2021/12/11 10:43:14;;;;;;;21.67;12.23;;;6.10;99.90;;;;;;5091230;28;20286;-59
2021/12/11 10:45:41;;;;;;;23.03;13.07;;;6.10;99.90;;;;;;5091311;28;20183;-60
2021/12/11 10:48:13;;;;;;;26.87;13.43;;;6.20;99.90;;;;;;5091244;28;20668;-61
2021/12/11 10:50:44;;;;;;;26.97;14.70;;;6.30;99.90;;;;;;5091320;28;20177;-60
2021/12/11 10:53:16;;;;;;;23.63;14.20;;;6.30;99.90;;;;;;5091273;28;20165;-59
2021/12/11 10:55:43;;;;;;;24.77;13.70;;;6.40;99.90;;;;;;5091433;28;20165;-60
2021/12/11 10:58:17;;;;;;;29.27;14.17;;;6.40;99.90;;;;;;5090386;28;20641;-59
2021/12/11 11:00:54;;;;;;;27.70;14.23;;;6.50;99.90;;;;;;5091181;28;20168;-61
2021/12/11 11:03:20;;;;;;;26.00;14.57;;;6.60;99.90;;;;;;5090690;28;20723;-60
2021/12/11 11:05:47;;;;;;;25.23;14.30;;;6.60;99.90;;;;;;5090206;28;20630;-60
2021/12/11 11:08:13;;;;;;;23.83;14.10;;;6.70;99.90;;;;;;5090951;28;20661;-59
2021/12/11 11:10:48;;;;;;;23.97;13.57;;;6.70;99.90;;;;;;5072482;28;20219;-60
2021/12/11 11:13:15;;;;;;;25.13;13.23;;;6.70;99.90;;;;;;5072442;28;20601;-61
2021/12/11 11:15:43;;;;;;;27.67;14.93;;;6.80;99.90;;;;;;5091075;28;20169;-60
2021/12/11 11:18:11;;;;;;;33.73;16.90;;;6.90;99.90;;;;;;5092415;28;20180;-62
2021/12/11 11:20:43;;;;;;;27.77;16.03;;;6.90;99.90;;;;;;5094842;28;20180;-60
2021/12/11 11:23:09;;;;;;;34.70;18.17;;;6.80;99.90;;;;;;5076322;28;20197;-59
2021/12/11 11:25:40;;;;;;;36.33;19.77;;;6.90;99.90;;;;;;5093890;28;20505;-61
2021/12/11 11:28:10;;;;;;;41.97;23.13;;;6.90;99.90;;;;;;5076519;28;20454;-60
2021/12/11 11:30:49;;;;;;;38.30;23.20;;;7.00;99.90;;;;;;5094483;28;20169;-61
2021/12/11 11:33:17;;;;;;;43.77;23.97;;;7.10;99.90;;;;;;5094088;28;20270;-61
2021/12/11 11:35:45;;;;;;;46.73;24.20;;;7.20;99.90;;;;;;5094307;28;20190;-60
2021/12/11 11:38:16;;;;;;;48.67;25.00;;;7.30;99.90;;;;;;5093838;28;20494;-59
2021/12/11 11:40:47;;;;;;;44.27;23.53;;;7.40;99.90;;;;;;5094241;28;20563;-60
2021/12/11 11:43:13;;;;;;;46.07;24.27;;;7.50;99.90;;;;;;5094205;28;20197;-60
2021/12/11 11:45:40;;;;;;;41.30;23.87;;;7.60;99.90;;;;;;5094539;28;20193;-60
2021/12/11 11:48:07;;;;;;;50.47;24.20;;;7.70;99.90;;;;;;5094147;28;20180;-60
2021/12/11 11:50:38;;;;;;;44.60;24.17;;;7.80;99.90;;;;;;5093698;28;20185;-60
2021/12/11 11:53:05;;;;;;;44.97;22.43;;;7.80;99.90;;;;;;5093960;28;20163;-59
2021/12/11 11:55:40;;;;;;;44.90;22.90;;;8.00;99.90;;;;;;5094138;28;20224;-61
2021/12/11 11:58:06;;;;;;;40.07;21.50;;;8.00;99.90;;;;;;5094318;28;20216;-60
2021/12/11 12:00:39;;;;;;;35.27;20.07;;;8.00;99.90;;;;;;5076223;28;20529;-59
2021/12/11 12:03:06;;;;;;;37.40;21.33;;;8.10;99.90;;;;;;5093469;28;20546;-62
2021/12/11 12:05:35;;;;;;;32.67;17.83;;;8.10;99.90;;;;;;5094124;28;20193;-60
2021/12/11 12:08:03;;;;;;;34.03;18.43;;;8.10;99.90;;;;;;5093817;28;20528;-59
2021/12/11 12:10:29;;;;;;;38.43;21.00;;;8.20;99.90;;;;;;5075294;28;20262;-59
2021/12/11 12:12:55;;;;;;;36.87;18.13;;;8.20;99.90;;;;;;5093471;28;20279;-60
2021/12/11 12:15:27;;;;;;;31.63;17.83;;;8.20;99.90;;;;;;5093692;28;20184;-61
2021/12/11 12:17:53;;;;;;;33.50;18.40;;;8.30;99.90;;;;;;5075320;28;20262;-59
2021/12/11 12:20:20;;;;;;;31.43;19.60;;;8.50;99.90;;;;;;5075494;28;20475;-60
2021/12/11 12:22:48;;;;;;;37.37;19.23;;;9.10;99.90;;;;;;5093519;28;20303;-61
2021/12/11 12:25:14;;;;;;;32.40;18.77;;;9.80;99.90;;;;;;5093249;28;20174;-60
2021/12/11 12:27:42;;;;;;;33.93;18.40;;;10.50;99.90;;;;;;5093056;28;20231;-60
2021/12/11 12:30:42;;;;;;;24.20;14.27;;;10.50;99.90;;;;;;5074803;28;20174;-60
2021/12/11 12:33:09;;;;;;;23.17;13.93;;;10.10;99.90;;;;;;5093799;28;20175;-59
2021/12/11 12:35:35;;;;;;;28.13;15.23;;;10.00;99.90;;;;;;5092959;28;20184;-60
2021/12/11 12:38:03;;;;;;;25.93;15.97;;;9.70;99.90;;;;;;5092964;28;20185;-60
2021/12/11 12:40:37;;;;;;;30.63;17.37;;;9.50;99.90;;;;;;5093464;28;20611;-60
2021/12/11 12:43:12;;;;;;;32.03;18.00;;;9.30;99.90;;;;;;5092841;28;20660;-59
2021/12/11 12:45:44;;;;;;;35.93;18.43;;;9.00;99.90;;;;;;5093410;28;20180;-60
2021/12/11 12:48:17;;;;;;;34.07;18.33;;;8.80;99.90;;;;;;5093109;28;20277;-59
2021/12/11 12:50:43;;;;;;;32.10;18.07;;;8.60;99.90;;;;;;5093142;28;20236;-60
2021/12/11 12:53:10;;;;;;;32.70;19.00;;;8.40;99.90;;;;;;5092970;28;20622;-59
2021/12/11 12:55:57;;;;;;;34.60;17.47;;;8.20;99.90;;;;;;5092799;28;20629;-60
2021/12/11 12:58:41;;;;;;;28.47;16.80;;;8.10;99.90;;;;;;5093066;28;20165;-61
2021/12/11 13:01:13;;;;;;;30.20;17.27;;;8.00;99.90;;;;;;5092796;28;20180;-62
2021/12/11 13:03:41;;;;;;;32.73;17.20;;;7.80;99.90;;;;;;5092839;28;20207;-61
2021/12/11 13:06:28;;;;;;;30.43;17.47;;;7.60;99.90;;;;;;5072344;28;20201;-59
2021/12/11 13:09:17;;;;;;;32.67;17.60;;;7.50;99.90;;;;;;5072166;28;20487;-59
2021/12/11 13:12:12;;;;;;;37.30;18.03;;;7.30;99.90;;;;;;5072178;28;20683;-61
2021/12/11 13:14:40;;;;;;;34.50;18.63;;;7.20;99.90;;;;;;5049843;28;20236;-63
2021/12/11 13:17:12;;;;;;;34.47;19.03;;;7.20;99.90;;;;;;5071695;28;20267;-60